createdAt,value
2017-05-08T00:00:47.841Z,0
2017-05-08T00:01:48.633Z,0
2017-05-08T00:02:49.271Z,0
2017-05-08T00:03:49.915Z,0
2017-05-08T00:04:50.561Z,0
2017-05-08T00:05:51.195Z,0
2017-05-08T00:06:51.843Z,0
2017-05-08T00:07:52.481Z,0
2017-05-08T00:08:53.122Z,0
2017-05-08T00:09:53.766Z,0
2017-05-08T00:10:54.713Z,0
2017-05-08T00:11:55.351Z,0
2017-05-08T00:12:55.993Z,0
2017-05-08T00:13:56.636Z,0
2017-05-08T00:14:57.278Z,0
2017-05-08T00:15:57.921Z,0
2017-05-08T00:16:58.565Z,0
2017-05-08T00:17:59.203Z,0
2017-05-08T00:19:00.047Z,0
2017-05-08T00:20:00.687Z,0
2017-05-08T00:21:01.332Z,0
2017-05-08T00:22:01.978Z,0
2017-05-08T00:23:02.621Z,0
2017-05-08T00:24:03.264Z,0
2017-05-08T00:25:03.900Z,0
2017-05-08T00:26:04.543Z,0
2017-05-08T00:27:05.534Z,0
2017-05-08T00:28:06.177Z,0
2017-05-08T00:29:06.821Z,0
2017-05-08T00:30:07.463Z,0
2017-05-08T00:31:08.102Z,0
2017-05-08T00:32:08.744Z,0
2017-05-08T00:33:09.380Z,0
2017-05-08T00:34:10.022Z,0
2017-05-08T00:35:10.764Z,0
2017-05-08T00:36:11.413Z,0
2017-05-08T00:37:12.055Z,0
2017-05-08T00:38:12.695Z,0
2017-05-08T00:39:13.341Z,0
2017-05-08T00:40:13.983Z,0
2017-05-08T00:41:14.623Z,0
2017-05-08T00:42:15.262Z,0
2017-05-08T00:43:15.903Z,0
2017-05-08T00:44:16.844Z,0
2017-05-08T00:45:17.490Z,0
2017-05-08T00:46:18.135Z,0
2017-05-08T00:47:18.775Z,0
2017-05-08T00:48:19.417Z,0
2017-05-08T00:49:20.056Z,0
2017-05-08T00:50:20.700Z,0
2017-05-08T00:51:21.341Z,0
2017-05-08T00:52:22.182Z,0
2017-05-08T00:53:22.824Z,0
2017-05-08T00:54:23.464Z,0
2017-05-08T00:55:24.113Z,0
2017-05-08T00:56:24.749Z,0
2017-05-08T00:57:25.392Z,0
2017-05-08T00:58:26.036Z,0
2017-05-08T00:59:26.676Z,0
2017-05-08T01:00:27.469Z,0
2017-05-08T01:01:28.110Z,0
2017-05-08T01:02:28.752Z,0
2017-05-08T01:03:29.398Z,0
2017-05-08T01:04:30.097Z,0
2017-05-08T01:05:30.737Z,0
2017-05-08T01:06:31.378Z,0
2017-05-08T01:07:32.020Z,0
2017-05-08T01:08:32.963Z,0
2017-05-08T01:09:33.601Z,0
2017-05-08T01:10:34.240Z,0
2017-05-08T01:11:34.881Z,0
2017-05-08T01:12:35.523Z,0
2017-05-08T01:13:36.165Z,0
2017-05-08T01:14:36.805Z,0
2017-05-08T01:15:37.447Z,0
2017-05-08T01:16:38.540Z,0
2017-05-08T01:17:39.177Z,0
2017-05-08T01:18:39.820Z,0
2017-05-08T01:19:40.463Z,0
2017-05-08T01:20:41.105Z,0
2017-05-08T01:21:41.749Z,0
2017-05-08T01:22:42.391Z,0
2017-05-08T01:23:43.027Z,0
2017-05-08T01:24:43.666Z,0
2017-05-08T01:25:44.462Z,0
2017-05-08T01:26:45.102Z,0
2017-05-08T01:27:45.744Z,0
2017-05-08T01:28:46.390Z,0
2017-05-08T01:29:47.031Z,0
2017-05-08T01:30:47.673Z,0
2017-05-08T01:31:48.316Z,0
2017-05-08T01:32:48.957Z,0
2017-05-08T01:33:49.795Z,0
2017-05-08T01:34:50.442Z,0
2017-05-08T01:35:51.079Z,0
2017-05-08T01:36:51.717Z,0
2017-05-08T01:37:52.357Z,0
2017-05-08T01:38:53.001Z,0
2017-05-08T01:39:53.645Z,0
2017-05-08T01:40:54.280Z,0
2017-05-08T01:41:55.370Z,0
2017-05-08T01:42:56.013Z,0
2017-05-08T01:43:56.662Z,0
2017-05-08T01:44:57.296Z,0
2017-05-08T01:45:57.939Z,0
2017-05-08T01:46:58.580Z,0
2017-05-08T01:47:59.222Z,0
2017-05-08T01:48:59.867Z,0
2017-05-08T01:50:00.709Z,0
2017-05-08T01:51:01.351Z,0
2017-05-08T01:52:01.993Z,0
2017-05-08T01:53:02.637Z,0
2017-05-08T01:54:03.277Z,0
2017-05-08T01:55:03.919Z,0
2017-05-08T01:56:04.564Z,0
2017-05-08T01:57:05.199Z,0
2017-05-08T01:58:05.843Z,0
2017-05-08T01:59:06.633Z,0
2017-05-08T02:00:07.275Z,0
2017-05-08T02:01:07.919Z,0
2017-05-08T02:02:08.555Z,0
2017-05-08T02:03:09.201Z,0
2017-05-08T02:04:09.843Z,0
2017-05-08T02:05:10.487Z,0
2017-05-08T02:06:11.128Z,0
2017-05-08T02:07:11.971Z,0
2017-05-08T02:08:12.611Z,0
2017-05-08T02:09:13.250Z,0
2017-05-08T02:10:13.893Z,0
2017-05-08T02:11:14.532Z,0
2017-05-08T02:12:15.175Z,0
2017-05-08T02:13:15.818Z,0
2017-05-08T02:14:23.710Z,0
2017-05-08T02:15:24.555Z,0
2017-05-08T02:16:25.191Z,0
2017-05-08T02:17:25.835Z,0
2017-05-08T02:18:26.475Z,0
2017-05-08T02:19:27.120Z,0
2017-05-08T02:20:27.764Z,0
2017-05-08T02:21:28.407Z,0
2017-05-08T02:22:29.046Z,0
2017-05-08T02:23:29.886Z,0
2017-05-08T02:24:30.529Z,0
2017-05-08T02:25:31.175Z,0
2017-05-08T02:26:31.815Z,0
2017-05-08T02:27:32.458Z,0
2017-05-08T02:28:33.097Z,0
2017-05-08T02:29:33.742Z,0
2017-05-08T02:30:34.381Z,0
2017-05-08T02:31:35.175Z,0
2017-05-08T02:32:35.814Z,0
2017-05-08T02:33:36.454Z,0
2017-05-08T02:34:37.100Z,0
2017-05-08T02:35:37.737Z,0
2017-05-08T02:36:38.374Z,0
2017-05-08T02:37:39.016Z,0
2017-05-08T02:38:39.660Z,0
2017-05-08T02:39:40.300Z,0
2017-05-08T02:40:41.146Z,0
2017-05-08T02:41:41.786Z,0
2017-05-08T02:42:42.429Z,0
2017-05-08T02:43:43.074Z,0
2017-05-08T02:44:43.716Z,0
2017-05-08T02:45:44.358Z,0
2017-05-08T02:46:45.000Z,0
2017-05-08T02:47:45.642Z,0
2017-05-08T02:48:46.484Z,0
2017-05-08T02:49:47.078Z,0
2017-05-08T02:50:47.719Z,0
2017-05-08T02:51:48.362Z,0
2017-05-08T02:52:49.005Z,0
2017-05-08T02:53:49.645Z,0
2017-05-08T02:54:50.290Z,0
2017-05-08T02:55:50.935Z,0
2017-05-08T02:56:51.725Z,0
2017-05-08T02:57:52.367Z,0
2017-05-08T02:58:53.009Z,0
2017-05-08T02:59:53.649Z,0
2017-05-08T03:00:54.298Z,0
2017-05-08T03:01:54.935Z,0
2017-05-08T03:02:55.578Z,0
2017-05-08T03:03:56.221Z,0
2017-05-08T03:04:57.164Z,0
2017-05-08T03:05:57.807Z,0
2017-05-08T03:06:58.453Z,0
2017-05-08T03:07:59.090Z,0
2017-05-08T03:08:59.734Z,0
2017-05-08T03:10:00.376Z,0
2017-05-08T03:11:01.019Z,0
2017-05-08T03:12:01.656Z,0
2017-05-08T03:13:02.449Z,0
2017-05-08T03:14:03.092Z,0
2017-05-08T03:15:03.791Z,0
2017-05-08T03:16:04.430Z,0
2017-05-08T03:17:05.071Z,0
2017-05-08T03:18:05.716Z,0
2017-05-08T03:19:06.678Z,0
2017-05-08T03:20:07.322Z,0
2017-05-08T03:21:07.965Z,0
2017-05-08T03:22:08.801Z,0
2017-05-08T03:23:09.446Z,0
2017-05-08T03:24:10.091Z,0
2017-05-08T03:25:10.736Z,0
2017-05-08T03:26:11.375Z,0
2017-05-08T03:27:12.019Z,0
2017-05-08T03:28:12.661Z,0
2017-05-08T03:29:13.299Z,0
2017-05-08T03:30:14.141Z,0
2017-05-08T03:31:14.782Z,0
2017-05-08T03:32:15.422Z,0
2017-05-08T03:33:16.067Z,0
2017-05-08T03:34:16.706Z,0
2017-05-08T03:35:17.348Z,0
2017-05-08T03:36:17.995Z,0
2017-05-08T03:37:18.633Z,0
2017-05-08T03:38:19.476Z,0
2017-05-08T03:39:20.114Z,0
2017-05-08T03:40:20.756Z,0
2017-05-08T03:41:21.399Z,0
2017-05-08T03:42:22.043Z,0
2017-05-08T03:43:22.684Z,0
2017-05-08T03:44:23.331Z,0
2017-05-08T03:45:23.969Z,0
2017-05-08T03:46:24.910Z,0
2017-05-08T03:47:25.551Z,0
2017-05-08T03:48:26.197Z,0
2017-05-08T03:49:26.837Z,0
2017-05-08T03:50:27.478Z,0
2017-05-08T03:51:28.119Z,0
2017-05-08T03:52:28.763Z,0
2017-05-08T03:53:29.402Z,0
2017-05-08T03:54:30.046Z,0
2017-05-08T03:55:30.888Z,0
2017-05-08T03:56:31.525Z,0
2017-05-08T03:57:32.167Z,0
2017-05-08T03:58:32.806Z,0
2017-05-08T03:59:33.444Z,0
2017-05-08T04:00:34.086Z,0
2017-05-08T04:01:34.729Z,0
2017-05-08T04:02:35.369Z,0
2017-05-08T04:03:36.211Z,0
2017-05-08T04:04:36.852Z,0
2017-05-08T04:05:37.490Z,0
2017-05-08T04:06:38.126Z,0
2017-05-08T04:07:38.768Z,0
2017-05-08T04:08:39.411Z,0
2017-05-08T04:09:40.048Z,0
2017-05-08T04:10:40.689Z,0
2017-05-08T04:11:41.533Z,0
2017-05-08T04:12:42.177Z,0
2017-05-08T04:13:42.818Z,0
2017-05-08T04:14:43.459Z,0
2017-05-08T04:15:44.099Z,0
2017-05-08T04:16:44.744Z,0
2017-05-08T04:17:45.385Z,0
2017-05-08T04:18:46.027Z,0
2017-05-08T04:19:46.821Z,0
2017-05-08T04:20:47.462Z,0
2017-05-08T04:21:48.107Z,0
2017-05-08T04:22:48.745Z,0
2017-05-08T04:23:49.388Z,0
2017-05-08T04:24:50.035Z,0
2017-05-08T04:25:50.672Z,0
2017-05-08T04:26:51.313Z,0
2017-05-08T04:27:52.154Z,0
2017-05-08T04:28:52.800Z,0
2017-05-08T04:29:53.437Z,0
2017-05-08T04:30:54.079Z,0
2017-05-08T04:31:54.721Z,0
2017-05-08T04:32:55.362Z,0
2017-05-08T04:33:56.002Z,0
2017-05-08T04:34:56.645Z,0
2017-05-08T04:35:57.240Z,0
2017-05-08T04:36:58.080Z,0
2017-05-08T04:37:58.720Z,0
2017-05-08T04:38:59.357Z,0
2017-05-08T04:39:59.999Z,0
2017-05-08T04:41:00.639Z,0
2017-05-08T04:42:01.280Z,0
2017-05-08T04:43:01.918Z,0
2017-05-08T04:44:02.556Z,0
2017-05-08T04:45:03.349Z,0
2017-05-08T04:46:03.990Z,0
2017-05-08T04:47:04.634Z,0
2017-05-08T04:48:05.282Z,0
2017-05-08T04:49:05.925Z,0
2017-05-08T04:50:06.567Z,0
2017-05-08T04:51:07.208Z,0
2017-05-08T04:52:07.849Z,0
2017-05-08T04:53:08.691Z,0
2017-05-08T04:54:09.333Z,0
2017-05-08T04:55:09.976Z,0
2017-05-08T04:56:10.619Z,0
2017-05-08T04:57:11.259Z,0
2017-05-08T04:58:11.898Z,0
2017-05-08T04:59:12.540Z,0
2017-05-08T05:00:13.183Z,0
2017-05-08T05:01:14.024Z,0
2017-05-08T05:02:14.667Z,0
2017-05-08T05:03:15.308Z,0
2017-05-08T05:04:15.949Z,0
2017-05-08T05:05:16.593Z,0
2017-05-08T05:06:17.238Z,0
2017-05-08T05:07:17.882Z,0
2017-05-08T05:08:18.520Z,0
2017-05-08T05:09:19.163Z,0
2017-05-08T05:10:20.003Z,0
2017-05-08T05:11:20.647Z,0
2017-05-08T05:12:21.292Z,0
2017-05-08T05:13:21.933Z,0
2017-05-08T05:14:22.575Z,0
2017-05-08T05:15:23.217Z,0
2017-05-08T05:16:23.857Z,0
2017-05-08T05:17:24.498Z,0
2017-05-08T05:18:25.293Z,0
2017-05-08T05:19:25.935Z,0
2017-05-08T05:20:26.579Z,0
2017-05-08T05:21:27.217Z,0
2017-05-08T05:22:27.855Z,0
2017-05-08T05:23:28.498Z,0
2017-05-08T05:24:29.141Z,0
2017-05-08T05:25:29.780Z,0
2017-05-08T05:26:30.622Z,0
2017-05-08T05:27:31.265Z,0
2017-05-08T05:28:31.907Z,0
2017-05-08T05:29:32.548Z,0
2017-05-08T05:30:33.190Z,0
2017-05-08T05:31:33.826Z,0
2017-05-08T05:32:34.467Z,0
2017-05-08T05:33:35.109Z,0
2017-05-08T05:34:36.003Z,0
2017-05-08T05:35:36.652Z,0
2017-05-08T05:36:37.291Z,0
2017-05-08T05:37:37.935Z,0
2017-05-08T05:38:38.576Z,0
2017-05-08T05:39:39.216Z,0
2017-05-08T05:40:39.858Z,0
2017-05-08T05:41:40.501Z,0
2017-05-08T05:42:41.394Z,0
2017-05-08T05:43:42.034Z,0
2017-05-08T05:44:42.677Z,0
2017-05-08T05:45:43.318Z,0
2017-05-08T05:46:43.962Z,0
2017-05-08T05:47:44.605Z,0
2017-05-08T05:48:45.249Z,0
2017-05-08T05:49:45.893Z,0
2017-05-08T05:50:46.529Z,0
2017-05-08T05:51:47.524Z,0
2017-05-08T05:52:48.162Z,0
2017-05-08T05:53:48.800Z,0
2017-05-08T05:54:49.440Z,0
2017-05-08T05:55:50.083Z,0
2017-05-08T05:56:50.725Z,0
2017-05-08T05:57:51.370Z,0
2017-05-08T05:58:52.006Z,0
2017-05-08T05:59:52.798Z,0
2017-05-08T06:00:53.439Z,0
2017-05-08T06:01:54.080Z,0
2017-05-08T06:02:54.716Z,0
2017-05-08T06:03:55.359Z,0
2017-05-08T06:04:56.001Z,0
2017-05-08T06:05:56.640Z,0
2017-05-08T06:06:57.279Z,0
2017-05-08T06:07:58.221Z,0
2017-05-08T06:08:58.862Z,0
2017-05-08T06:09:59.502Z,0
2017-05-08T06:11:00.146Z,0
2017-05-08T06:12:00.788Z,0
2017-05-08T06:13:01.429Z,0
2017-05-08T06:14:02.073Z,0
2017-05-08T06:15:02.713Z,0
2017-05-08T06:16:03.555Z,0
2017-05-08T06:17:04.193Z,0
2017-05-08T06:18:04.835Z,0
2017-05-08T06:19:05.475Z,0
2017-05-08T06:20:06.118Z,0
2017-05-08T06:21:07.076Z,0
2017-05-08T06:22:07.712Z,0
2017-05-08T06:23:08.354Z,0
2017-05-08T06:24:08.994Z,0
2017-05-08T06:25:09.838Z,0
2017-05-08T06:26:10.478Z,0
2017-05-08T06:27:11.122Z,0
2017-05-08T06:28:11.760Z,0
2017-05-08T06:29:12.401Z,0
2017-05-08T06:30:13.047Z,0
2017-05-08T06:31:13.690Z,0
2017-05-08T06:32:14.333Z,0
2017-05-08T06:33:15.173Z,0
2017-05-08T06:34:15.816Z,0
2017-05-08T06:35:16.456Z,0
2017-05-08T06:36:17.101Z,0
2017-05-08T06:37:17.742Z,0
2017-05-08T06:38:18.382Z,0
2017-05-08T06:39:19.028Z,0
2017-05-08T06:40:19.667Z,0
2017-05-08T06:41:20.506Z,0
2017-05-08T06:42:21.146Z,0
2017-05-08T06:43:21.789Z,0
2017-05-08T06:44:22.429Z,0
2017-05-08T06:45:23.070Z,0
2017-05-08T06:46:23.709Z,0
2017-05-08T06:47:24.355Z,4
2017-05-08T06:48:24.998Z,8
2017-05-08T06:49:25.939Z,8
2017-05-08T06:50:26.578Z,8
2017-05-08T06:51:27.217Z,8
2017-05-08T06:52:27.859Z,0
2017-05-08T06:53:28.499Z,0
2017-05-08T06:54:29.141Z,0
2017-05-08T06:55:29.786Z,0
2017-05-08T06:56:30.427Z,0
2017-05-08T06:57:31.317Z,0
2017-05-08T06:58:31.962Z,0
2017-05-08T06:59:32.602Z,0
2017-05-08T07:00:33.245Z,0
2017-05-08T07:01:33.893Z,0
2017-05-08T07:02:34.530Z,0
2017-05-08T07:03:35.170Z,0
2017-05-08T07:04:35.813Z,0
2017-05-08T07:05:36.454Z,0
2017-05-08T07:06:37.294Z,0
2017-05-08T07:07:37.937Z,0
2017-05-08T07:08:38.580Z,0
2017-05-08T07:09:39.218Z,0
2017-05-08T07:10:39.863Z,0
2017-05-08T07:11:40.503Z,0
2017-05-08T07:12:41.144Z,0
2017-05-08T07:13:41.783Z,0
2017-05-08T07:14:42.623Z,0
2017-05-08T07:15:43.267Z,0
2017-05-08T07:16:43.904Z,0
2017-05-08T07:17:44.549Z,0
2017-05-08T07:18:45.189Z,0
2017-05-08T07:19:45.833Z,0
2017-05-08T07:20:46.472Z,0
2017-05-08T07:21:47.116Z,0
2017-05-08T07:22:47.958Z,0
2017-05-08T07:23:48.594Z,0
2017-05-08T07:24:49.234Z,0
2017-05-08T07:25:49.878Z,0
2017-05-08T07:26:50.521Z,0
2017-05-08T07:27:51.160Z,0
2017-05-08T07:28:51.802Z,0
2017-05-08T07:29:52.446Z,0
2017-05-08T07:30:53.537Z,0
2017-05-08T07:31:54.178Z,0
2017-05-08T07:32:54.821Z,0
2017-05-08T07:33:55.464Z,0
2017-05-08T07:34:56.105Z,0
2017-05-08T07:35:56.746Z,0
2017-05-08T07:36:57.383Z,0
2017-05-08T07:37:58.019Z,0
2017-05-08T07:38:58.657Z,0
2017-05-08T07:39:59.499Z,0
2017-05-08T07:41:00.144Z,0
2017-05-08T07:42:00.779Z,0
2017-05-08T07:43:01.422Z,0
2017-05-08T07:44:02.064Z,0
2017-05-08T07:45:02.705Z,0
2017-05-08T07:46:03.345Z,0
2017-05-08T07:47:03.986Z,0
2017-05-08T07:48:04.778Z,0
2017-05-08T07:49:05.415Z,0
2017-05-08T07:50:06.058Z,0
2017-05-08T07:51:06.694Z,0
2017-05-08T07:52:07.337Z,4
2017-05-08T07:53:07.979Z,4
2017-05-08T07:54:08.616Z,4
2017-05-08T07:55:09.252Z,4
2017-05-08T07:56:10.192Z,0
2017-05-08T07:57:10.834Z,4
2017-05-08T07:58:11.473Z,4
2017-05-08T07:59:12.113Z,4
2017-05-08T08:00:12.753Z,4
2017-05-08T08:01:13.396Z,4
2017-05-08T08:02:14.036Z,4
2017-05-08T08:03:14.678Z,4
2017-05-08T08:04:15.522Z,4
2017-05-08T08:05:16.162Z,4
2017-05-08T08:06:16.804Z,4
2017-05-08T08:07:17.444Z,4
2017-05-08T08:08:18.087Z,4
2017-05-08T08:09:18.728Z,4
2017-05-08T08:10:19.369Z,4
2017-05-08T08:11:20.008Z,4
2017-05-08T08:12:20.950Z,4
2017-05-08T08:13:21.586Z,0
2017-05-08T08:14:22.224Z,0
2017-05-08T08:15:22.867Z,0
2017-05-08T08:16:23.511Z,0
2017-05-08T08:17:24.150Z,0
2017-05-08T08:18:24.789Z,4
2017-05-08T08:19:25.428Z,4
2017-05-08T08:20:26.070Z,132
2017-05-08T08:21:26.912Z,1040
2017-05-08T08:22:27.564Z,1060
2017-05-08T08:23:28.239Z,1064
2017-05-08T08:24:29.055Z,1072
2017-05-08T08:25:29.700Z,1068
2017-05-08T08:26:30.345Z,1072
2017-05-08T08:27:30.992Z,1072
2017-05-08T08:28:31.641Z,1088
2017-05-08T08:29:32.487Z,1084
2017-05-08T08:30:33.128Z,1092
2017-05-08T08:31:33.779Z,1092
2017-05-08T08:32:34.419Z,1080
2017-05-08T08:33:35.064Z,1080
2017-05-08T08:34:35.712Z,1092
2017-05-08T08:35:36.355Z,1096
2017-05-08T08:36:37.008Z,1120
2017-05-08T08:37:37.795Z,1124
2017-05-08T08:38:38.442Z,1124
2017-05-08T08:39:39.085Z,1108
2017-05-08T08:40:39.731Z,1088
2017-05-08T08:41:40.377Z,1076
2017-05-08T08:42:41.023Z,1056
2017-05-08T08:43:41.671Z,1064
2017-05-08T08:44:42.311Z,1088
2017-05-08T08:45:43.157Z,1112
2017-05-08T08:46:43.805Z,1144
2017-05-08T08:47:44.449Z,1200
2017-05-08T08:48:45.096Z,1248
2017-05-08T08:49:45.739Z,1292
2017-05-08T08:50:46.386Z,1336
2017-05-08T08:51:47.030Z,1336
2017-05-08T08:52:47.678Z,1316
2017-05-08T08:53:48.318Z,1304
2017-05-08T08:54:49.216Z,1288
2017-05-08T08:55:49.863Z,1304
2017-05-08T08:56:50.510Z,1336
2017-05-08T08:57:51.152Z,1336
2017-05-08T08:58:51.801Z,1352
2017-05-08T08:59:52.453Z,1376
2017-05-08T09:00:53.098Z,1396
2017-05-08T09:01:53.743Z,1408
2017-05-08T09:02:54.591Z,1372
2017-05-08T09:03:55.240Z,1348
2017-05-08T09:04:55.882Z,1316
2017-05-08T09:05:56.529Z,1296
2017-05-08T09:06:57.171Z,1324
2017-05-08T09:07:57.816Z,1356
2017-05-08T09:08:58.460Z,1404
2017-05-08T09:09:59.114Z,1420
2017-05-08T09:10:59.958Z,1428
2017-05-08T09:12:00.597Z,1464
2017-05-08T09:13:01.243Z,1468
2017-05-08T09:14:01.889Z,1496
2017-05-08T09:15:02.535Z,1444
2017-05-08T09:16:03.182Z,1456
2017-05-08T09:17:03.824Z,1404
2017-05-08T09:18:04.468Z,1432
2017-05-08T09:19:05.316Z,1440
2017-05-08T09:20:05.960Z,1964
2017-05-08T09:21:06.608Z,2032
2017-05-08T09:22:07.249Z,2132
2017-05-08T09:23:07.894Z,2252
2017-05-08T09:24:08.541Z,2424
2017-05-08T09:25:09.187Z,2548
2017-05-08T09:26:09.835Z,2628
2017-05-08T09:27:10.676Z,2688
2017-05-08T09:28:11.323Z,2648
2017-05-08T09:29:11.965Z,2688
2017-05-08T09:30:12.611Z,2672
2017-05-08T09:31:13.258Z,2808
2017-05-08T09:32:13.903Z,3120
2017-05-08T09:33:14.547Z,3112
2017-05-08T09:34:15.194Z,3124
2017-05-08T09:35:15.840Z,2672
2017-05-08T09:36:16.683Z,2520
2017-05-08T09:37:17.333Z,2684
2017-05-08T09:38:17.975Z,3020
2017-05-08T09:39:18.616Z,3044
2017-05-08T09:40:19.262Z,3160
2017-05-08T09:41:19.907Z,3132
2017-05-08T09:42:20.549Z,3164
2017-05-08T09:43:21.197Z,3448
2017-05-08T09:44:21.991Z,3724
2017-05-08T09:45:22.639Z,3916
2017-05-08T09:46:23.283Z,3836
2017-05-08T09:47:23.928Z,3476
2017-05-08T09:48:24.569Z,2924
2017-05-08T09:49:25.217Z,3040
2017-05-08T09:50:25.862Z,3504
2017-05-08T09:51:26.508Z,3784
2017-05-08T09:52:27.352Z,3860
2017-05-08T09:53:27.999Z,4060
2017-05-08T09:54:28.645Z,4172
2017-05-08T09:55:29.286Z,4272
2017-05-08T09:56:29.935Z,4152
2017-05-08T09:57:30.581Z,3924
2017-05-08T09:58:31.227Z,3584
2017-05-08T09:59:31.876Z,3628
2017-05-08T10:00:32.673Z,3952
2017-05-08T10:01:33.316Z,3944
2017-05-08T10:02:33.962Z,3632
2017-05-08T10:03:34.607Z,3716
2017-05-08T10:04:35.253Z,3704
2017-05-08T10:05:35.902Z,3948
2017-05-08T10:06:36.542Z,4096
2017-05-08T10:07:37.192Z,4240
2017-05-08T10:08:37.837Z,4312
2017-05-08T10:09:38.686Z,4316
2017-05-08T10:10:39.334Z,4312
2017-05-08T10:11:39.976Z,4220
2017-05-08T10:12:40.619Z,4328
2017-05-08T10:13:41.265Z,4260
2017-05-08T10:14:41.906Z,4140
2017-05-08T10:15:42.558Z,4472
2017-05-08T10:16:43.200Z,4692
2017-05-08T10:17:44.047Z,4596
2017-05-08T10:18:44.695Z,4520
2017-05-08T10:19:45.342Z,4560
2017-05-08T10:20:45.990Z,4552
2017-05-08T10:21:46.638Z,4632
2017-05-08T10:22:47.280Z,4652
2017-05-08T10:23:47.931Z,4668
2017-05-08T10:24:48.580Z,4696
2017-05-08T10:25:49.378Z,4764
2017-05-08T10:26:50.029Z,4920
2017-05-08T10:27:50.677Z,5148
2017-05-08T10:28:51.328Z,5360
2017-05-08T10:29:51.972Z,5304
2017-05-08T10:30:52.622Z,4868
2017-05-08T10:31:53.271Z,4644
2017-05-08T10:32:53.927Z,4824
2017-05-08T10:33:54.772Z,4864
2017-05-08T10:34:55.421Z,4864
2017-05-08T10:35:56.069Z,4724
2017-05-08T10:36:56.716Z,5104
2017-05-08T10:37:57.364Z,5148
2017-05-08T10:38:58.011Z,5212
2017-05-08T10:39:58.655Z,5276
2017-05-08T10:40:59.305Z,5292
2017-05-08T10:42:00.147Z,5412
2017-05-08T10:43:00.793Z,5628
2017-05-08T10:44:01.440Z,6104
2017-05-08T10:45:02.084Z,7500
2017-05-08T10:46:02.727Z,8852
2017-05-08T10:47:03.374Z,10040
2017-05-08T10:48:04.021Z,9996
2017-05-08T10:49:04.670Z,15012
2017-05-08T10:50:05.320Z,39072
2017-05-08T10:51:06.167Z,41248
2017-05-08T10:52:06.814Z,40992
2017-05-08T10:53:07.465Z,35648
2017-05-08T10:54:08.117Z,20576
2017-05-08T10:55:08.763Z,9076
2017-05-08T10:56:09.409Z,7676
2017-05-08T10:57:10.056Z,7568
2017-05-08T10:58:10.703Z,6748
2017-05-08T10:59:11.599Z,6932
2017-05-08T11:00:12.248Z,6996
2017-05-08T11:01:12.901Z,6620
2017-05-08T11:02:13.546Z,6460
2017-05-08T11:03:14.197Z,6488
2017-05-08T11:04:14.848Z,6748
2017-05-08T11:05:15.500Z,7140
2017-05-08T11:06:16.152Z,9204
2017-05-08T11:07:17.001Z,15356
2017-05-08T11:08:17.602Z,19616
2017-05-08T11:09:18.254Z,18564
2017-05-08T11:10:18.909Z,17044
2017-05-08T11:11:19.555Z,14596
2017-05-08T11:12:20.209Z,12756
2017-05-08T11:13:20.862Z,11796
2017-05-08T11:14:21.511Z,11244
2017-05-08T11:15:22.364Z,11012
2017-05-08T11:16:23.019Z,10840
2017-05-08T11:17:23.668Z,10800
2017-05-08T11:18:24.324Z,10700
2017-05-08T11:19:24.978Z,10788
2017-05-08T11:20:25.635Z,10704
2017-05-08T11:21:26.288Z,10984
2017-05-08T11:22:26.943Z,11376
2017-05-08T11:23:27.592Z,11840
2017-05-08T11:24:28.696Z,12112
2017-05-08T11:25:29.352Z,12256
2017-05-08T11:26:30.004Z,12408
2017-05-08T11:27:30.659Z,12496
2017-05-08T11:28:31.307Z,12532
2017-05-08T11:29:31.962Z,12628
2017-05-08T11:30:32.615Z,12788
2017-05-08T11:31:33.269Z,12908
2017-05-08T11:32:34.277Z,12844
2017-05-08T11:33:34.931Z,12724
2017-05-08T11:34:35.584Z,12748
2017-05-08T11:35:36.235Z,12804
2017-05-08T11:36:36.889Z,13072
2017-05-08T11:37:37.540Z,13180
2017-05-08T11:38:38.515Z,12976
2017-05-08T11:39:39.172Z,12680
2017-05-08T11:40:40.078Z,12732
2017-05-08T11:41:40.737Z,13032
2017-05-08T11:42:41.398Z,13228
2017-05-08T11:43:42.054Z,13700
2017-05-08T11:44:42.715Z,13772
2017-05-08T11:45:43.370Z,13672
2017-05-08T11:46:44.026Z,13460
2017-05-08T11:47:44.688Z,13316
2017-05-08T11:48:45.586Z,13408
2017-05-08T11:49:46.247Z,13384
2017-05-08T11:50:46.901Z,13476
2017-05-08T11:51:47.562Z,13628
2017-05-08T11:52:48.217Z,13748
2017-05-08T11:53:48.874Z,13636
2017-05-08T11:54:49.532Z,10840
2017-05-08T11:55:50.189Z,13448
2017-05-08T11:56:51.001Z,12872
2017-05-08T11:57:51.653Z,13188
2017-05-08T11:58:52.309Z,13092
2017-05-08T11:59:52.965Z,13168
2017-05-08T12:00:53.621Z,13664
2017-05-08T12:01:54.277Z,14240
2017-05-08T12:02:54.933Z,14492
2017-05-08T12:03:55.592Z,14616
2017-05-08T12:04:56.247Z,14356
2017-05-08T12:05:57.207Z,14432
2017-05-08T12:06:57.865Z,14124
2017-05-08T12:07:58.517Z,14616
2017-05-08T12:08:59.177Z,15056
2017-05-08T12:09:59.828Z,15324
2017-05-08T12:11:00.486Z,15684
2017-05-08T12:12:01.143Z,16084
2017-05-08T12:13:01.796Z,16348
2017-05-08T12:14:02.600Z,15972
2017-05-08T12:15:03.259Z,15264
2017-05-08T12:16:03.916Z,14980
2017-05-08T12:17:04.572Z,15260
2017-05-08T12:18:05.225Z,15880
2017-05-08T12:19:05.884Z,16420
2017-05-08T12:20:06.537Z,16256
2017-05-08T12:21:07.191Z,15708
2017-05-08T12:22:08.151Z,14992
2017-05-08T12:23:08.811Z,14560
2017-05-08T12:24:09.470Z,14648
2017-05-08T12:25:10.130Z,14748
2017-05-08T12:26:10.787Z,14676
2017-05-08T12:27:11.445Z,14976
2017-05-08T12:28:12.106Z,14648
2017-05-08T12:29:12.763Z,14040
2017-05-08T12:30:13.722Z,14020
2017-05-08T12:31:14.379Z,13132
2017-05-08T12:32:15.033Z,14344
2017-05-08T12:33:15.692Z,14032
2017-05-08T12:34:16.350Z,13584
2017-05-08T12:35:17.007Z,13696
2017-05-08T12:36:17.666Z,13644
2017-05-08T12:37:18.326Z,13932
2017-05-08T12:38:19.136Z,13868
2017-05-08T12:39:19.795Z,14112
2017-05-08T12:40:20.451Z,14260
2017-05-08T12:41:21.113Z,13372
2017-05-08T12:42:21.769Z,13564
2017-05-08T12:43:22.428Z,13556
2017-05-08T12:44:23.088Z,13444
2017-05-08T12:45:23.751Z,13524
2017-05-08T12:46:24.410Z,13624
2017-05-08T12:47:25.268Z,13336
2017-05-08T12:48:25.921Z,13336
2017-05-08T12:49:26.580Z,13616
2017-05-08T12:50:27.239Z,13764
2017-05-08T12:51:27.893Z,13936
2017-05-08T12:52:28.552Z,13712
2017-05-08T12:53:29.210Z,13936
2017-05-08T12:54:29.870Z,13892
2017-05-08T12:55:30.678Z,13680
2017-05-08T12:56:31.340Z,13108
2017-05-08T12:57:31.998Z,12724
2017-05-08T12:58:32.659Z,12840
2017-05-08T12:59:33.318Z,13240
2017-05-08T13:00:33.977Z,14036
2017-05-08T13:01:34.637Z,14120
2017-05-08T13:02:35.297Z,11132
2017-05-08T13:03:36.254Z,8264
2017-05-08T13:04:36.912Z,7700
2017-05-08T13:05:37.569Z,7512
2017-05-08T13:06:38.227Z,7376
2017-05-08T13:07:38.885Z,7308
2017-05-08T13:08:39.539Z,7268
2017-05-08T13:09:40.197Z,7344
2017-05-08T13:10:40.855Z,7628
2017-05-08T13:11:41.814Z,8020
2017-05-08T13:12:42.474Z,8264
2017-05-08T13:13:43.131Z,8508
2017-05-08T13:14:43.789Z,8820
2017-05-08T13:15:44.478Z,9604
2017-05-08T13:16:45.103Z,11728
2017-05-08T13:17:45.763Z,27008
2017-05-08T13:18:46.418Z,53664
2017-05-08T13:19:47.077Z,60128
2017-05-08T13:20:47.938Z,59712
2017-05-08T13:21:48.591Z,51456
2017-05-08T13:22:49.245Z,39840
2017-05-08T13:23:49.901Z,30624
2017-05-08T13:24:50.557Z,28736
2017-05-08T13:25:51.214Z,29376
2017-05-08T13:26:51.872Z,30304
2017-05-08T13:27:52.529Z,31072
2017-05-08T13:28:53.390Z,32096
2017-05-08T13:29:54.046Z,33632
2017-05-08T13:30:54.704Z,34528
2017-05-08T13:31:55.363Z,36544
2017-05-08T13:32:56.021Z,36704
2017-05-08T13:33:56.678Z,39232
2017-05-08T13:34:57.335Z,40224
2017-05-08T13:35:57.999Z,40032
2017-05-08T13:36:58.803Z,40640
2017-05-08T13:37:59.458Z,43968
2017-05-08T13:39:00.118Z,47968
2017-05-08T13:40:00.778Z,50080
2017-05-08T13:41:01.435Z,45696
2017-05-08T13:42:02.097Z,40544
2017-05-08T13:43:02.755Z,38176
2017-05-08T13:44:03.416Z,34240
2017-05-08T13:45:04.277Z,32480
2017-05-08T13:46:04.937Z,30592
2017-05-08T13:47:05.596Z,27968
2017-05-08T13:48:06.256Z,26272
2017-05-08T13:49:06.913Z,25184
2017-05-08T13:50:07.571Z,20096
2017-05-08T13:51:08.234Z,11408
2017-05-08T13:52:08.891Z,6684
2017-05-08T13:53:09.721Z,5948
2017-05-08T13:54:10.353Z,5804
2017-05-08T13:55:11.007Z,5528
2017-05-08T13:56:11.657Z,5496
2017-05-08T13:57:12.313Z,5408
2017-05-08T13:58:12.971Z,5416
2017-05-08T13:59:13.627Z,5284
2017-05-08T14:00:14.279Z,5172
2017-05-08T14:01:14.932Z,5144
2017-05-08T14:02:15.889Z,5060
2017-05-08T14:03:16.539Z,5032
2017-05-08T14:04:17.193Z,4980
2017-05-08T14:05:17.849Z,5004
2017-05-08T14:06:18.505Z,5024
2017-05-08T14:07:19.188Z,4936
2017-05-08T14:08:19.818Z,5016
2017-05-08T14:09:20.473Z,4932
2017-05-08T14:10:21.277Z,5004
2017-05-08T14:11:21.933Z,4956
2017-05-08T14:12:22.582Z,4876